Terminal Aerodrome Forecast
Issued by NWS

Home | Current Version | Previous Version | Graphics & Text | Print | Product List | Glossary On
Versions: 1 2 3 4 5 6 7 8 9 10 11 12 13 14 15 16 17 18 19 20 21
616
FTUS42 KMHX 171133
TAFOAJ
TAF
KOAJ 171133Z 1712/1812 05009KT P6SM SCT025 BKN035
     FM171700 08007KT P6SM VCSH OVC020
     FM172100 VRB03KT 6SM -RADZ OVC007
     FM180100 24005KT 4SM -DZ BKN003
     FM180900 33005KT P6SM OVC007
      AMD LTD TO CLD VIS AND WIND=

USA.gov is the U.S. government's official web portal to all federal, state and local government web resources and services.